Dunmore, Canada
Current Conditions -  °F | °C
As of 7:00 PM on Saturday 25 Oct 2014 (Local Time) from CYXH Reporting Station
Broken Clouds Broken Clouds  
Wind Chill: 52°   Ceiling: 27000
Heat Index: 52°   Visibility: 15mi
Dew Point: 37°   Wind: 8mph
Humidity: 58%   Direction: 90°E
Pressure: 29.6"   Gusts: NA
Location:  49.97°N, 110.58°W
Report Text: CYXH 260100Z 09007KT 15SM BKN270 11/03 A2960 RMK CI6 SLP038 DENSITY ALT 2700FT
Loading
Personal Weather Stations






























Interactive Weather Map
Tropical Storm Tracking
New forecast layout! Learn more

10-Day Weather Forecast

Advertisements
Track Severe Weather on mobile